Time;durP1;ratioP1;P1;durP2;ratioP2;P2;SDS_P1;SDS_P2;PMS_P1;PMS_P2;Temp;Humidity;BMP_temperature;BMP_pressure;BME280_temperature;BME280_humidity;BME280_pressure;Samples;Min_cycle;Max_cycle;Signal;HPM_P1;HPM_P2
2023/03/31 00:00:52;;;;;;;4.60;2.85;;;16.40;52.20;;;;;;5085529;28;45357;-72
2023/03/31 00:03:22;;;;;;;4.55;2.78;;;16.40;52.10;;;;;;5085610;28;45162;-72
2023/03/31 00:05:52;;;;;;;7.15;3.00;;;16.40;52.20;;;;;;5085638;28;45357;-72
2023/03/31 00:08:20;;;;;;;4.05;2.80;;;16.40;52.20;;;;;;5085291;28;46930;-72
2023/03/31 00:10:47;;;;;;;3.83;3.20;;;16.40;52.20;;;;;;5085426;28;45319;-72
2023/03/31 00:13:14;;;;;;;4.93;3.45;;;16.40;52.20;;;;;;5085497;28;45290;-72
2023/03/31 00:15:41;;;;;;;3.10;2.55;;;16.40;52.20;;;;;;5085501;28;45317;-71
2023/03/31 00:18:07;;;;;;;4.13;2.95;;;16.40;52.10;;;;;;5085210;28;45457;-72
2023/03/31 00:20:36;;;;;;;3.42;2.90;;;16.40;52.20;;;;;;5085185;28;45332;-72
2023/03/31 00:23:09;;;;;;;3.85;2.67;;;16.40;52.20;;;;;;5085404;28;45348;-72
2023/03/31 00:25:39;;;;;;;4.65;3.00;;;16.40;52.20;;;;;;5085158;28;45300;-72
2023/03/31 00:28:05;;;;;;;4.85;2.92;;;16.40;52.10;;;;;;5084867;28;45379;-72
2023/03/31 00:30:32;;;;;;;4.70;2.90;;;16.40;52.20;;;;;;5085033;28;45467;-72
2023/03/31 00:32:59;;;;;;;4.22;2.90;;;16.40;52.10;;;;;;5085323;28;45292;-72
2023/03/31 00:35:26;;;;;;;5.30;2.67;;;16.40;52.10;;;;;;5085366;27;45316;-71
2023/03/31 00:37:56;;;;;;;3.22;2.67;;;16.40;52.20;;;;;;5087790;28;46720;-72
2023/03/31 00:40:23;;;;;;;4.35;2.67;;;16.40;52.20;;;;;;5088451;28;45279;-72
2023/03/31 00:42:50;;;;;;;4.57;2.97;;;16.40;52.20;;;;;;5088637;28;45328;-72
2023/03/31 00:45:28;;;;;;;3.63;2.42;;;16.40;52.10;;;;;;5088775;28;45238;-72
2023/03/31 00:47:57;;;;;;;3.92;2.45;;;16.40;52.10;;;;;;5088219;28;45308;-72
2023/03/31 00:50:27;;;;;;;5.07;2.67;;;16.40;52.10;;;;;;5088501;28;45269;-72
2023/03/31 00:52:57;;;;;;;4.70;2.47;;;16.40;52.10;;;;;;5088533;28;45278;-72
2023/03/31 00:55:25;;;;;;;4.13;2.50;;;16.40;52.70;;;;;;5088715;28;45311;-72
2023/03/31 00:57:52;;;;;;;3.47;2.17;;;16.40;52.20;;;;;;5088029;28;45260;-72
2023/03/31 01:00:20;;;;;;;3.08;2.42;;;16.40;52.20;;;;;;5088253;28;45340;-72
2023/03/31 01:02:51;;;;;;;3.45;2.30;;;16.40;52.20;;;;;;5088443;28;45301;-72
2023/03/31 01:05:18;;;;;;;3.70;2.47;;;16.40;52.20;;;;;;5088350;28;45321;-71
2023/03/31 01:07:46;;;;;;;4.05;2.40;;;16.40;52.20;;;;;;5087984;28;46261;-72
2023/03/31 01:10:14;;;;;;;4.03;2.40;;;16.40;52.20;;;;;;5088035;28;45351;-72
2023/03/31 01:12:43;;;;;;;5.00;2.67;;;16.40;52.20;;;;;;5088289;28;45323;-72
2023/03/31 01:15:11;;;;;;;6.30;2.83;;;16.30;52.10;;;;;;5088392;28;45275;-72
2023/03/31 01:17:37;;;;;;;3.55;2.50;;;16.30;52.10;;;;;;5087873;28;46770;-71
2023/03/31 01:20:12;;;;;;;2.55;2.22;;;16.30;52.10;;;;;;5087849;28;45273;-72
2023/03/31 01:23:05;;;;;;;3.55;2.50;;;16.30;52.10;;;;;;5087965;28;45317;-71
2023/03/31 01:25:51;;;;;;;4.32;2.40;;;16.30;52.10;;;;;;5087743;28;45234;-71
2023/03/31 01:28:23;;;;;;;3.33;2.25;;;16.30;52.10;;;;;;5087643;28;46733;-71
2023/03/31 01:31:22;;;;;;;3.47;2.10;;;16.30;52.10;;;;;;5087686;28;45394;-72
2023/03/31 01:34:31;;;;;;;2.88;1.90;;;16.30;52.10;;;;;;5087823;28;45284;-72
2023/03/31 01:37:30;;;;;;;2.03;1.58;;;16.30;52.10;;;;;;5087794;28;45271;-72
2023/03/31 01:40:08;;;;;;;2.78;2.10;;;16.30;52.10;;;;;;5087518;28;46419;-71
2023/03/31 01:42:36;;;;;;;3.15;2.38;;;16.30;52.10;;;;;;5087658;28;45296;-72
2023/03/31 01:45:06;;;;;;;2.85;2.05;;;16.30;52.10;;;;;;5087613;28;45272;-72
2023/03/31 01:47:39;;;;;;;4.53;2.10;;;16.30;52.20;;;;;;5087177;27;45462;-71
2023/03/31 01:50:07;;;;;;;3.00;2.20;;;16.30;52.20;;;;;;5087314;28;45655;-72
2023/03/31 01:52:37;;;;;;;3.15;2.47;;;16.30;52.20;;;;;;5087393;28;45323;-71
2023/03/31 01:55:07;;;;;;;3.50;2.28;;;16.30;52.20;;;;;;5087522;28;45360;-71
2023/03/31 01:57:35;;;;;;;3.05;2.20;;;16.30;52.20;;;;;;5087561;28;45435;-72
2023/03/31 02:00:03;;;;;;;2.90;2.15;;;16.30;52.20;;;;;;5087198;28;45489;-71
2023/03/31 02:02:32;;;;;;;2.75;1.90;;;16.30;52.20;;;;;;5087208;28;45320;-71
2023/03/31 02:05:00;;;;;;;2.60;2.40;;;16.30;52.20;;;;;;5087216;28;45298;-72
2023/03/31 02:07:29;;;;;;;2.97;1.98;;;16.30;52.20;;;;;;5087290;28;45257;-72
2023/03/31 02:09:57;;;;;;;3.65;2.20;;;16.20;52.20;;;;;;5087051;28;46696;-72
2023/03/31 02:12:26;;;;;;;2.83;2.22;;;16.30;52.20;;;;;;5087087;28;45346;-71
2023/03/31 02:14:53;;;;;;;2.72;2.28;;;16.20;52.20;;;;;;5087278;28;45252;-71
2023/03/31 02:17:29;;;;;;;3.92;2.13;;;16.20;52.10;;;;;;5087134;28;45314;-71
2023/03/31 02:19:57;;;;;;;4.75;2.10;;;16.20;52.20;;;;;;5086886;28;45475;-72
2023/03/31 02:22:24;;;;;;;3.70;2.42;;;16.20;52.20;;;;;;5086970;28;45385;-72
2023/03/31 02:24:50;;;;;;;3.15;2.38;;;16.20;52.20;;;;;;5087005;28;45188;-72
2023/03/31 02:27:19;;;;;;;2.97;2.30;;;16.20;52.20;;;;;;5086873;28;45332;-72
2023/03/31 02:29:47;;;;;;;3.40;2.03;;;16.20;52.90;;;;;;5086689;28;45301;-72
2023/03/31 02:32:15;;;;;;;2.92;2.22;;;16.20;52.20;;;;;;5086820;28;45242;-72
2023/03/31 02:34:42;;;;;;;2.80;2.20;;;16.20;52.20;;;;;;5086949;28;45499;-71
2023/03/31 02:37:09;;;;;;;4.38;2.10;;;16.20;52.20;;;;;;5086786;28;45261;-71
2023/03/31 02:39:37;;;;;;;2.92;1.90;;;16.20;52.30;;;;;;5086582;28;45478;-72
2023/03/31 02:42:06;;;;;;;3.38;1.95;;;16.20;52.30;;;;;;5086588;28;45388;-71
2023/03/31 02:44:33;;;;;;;3.33;2.17;;;16.20;52.20;;;;;;5086849;28;45287;-72
2023/03/31 02:47:01;;;;;;;1.80;1.52;;;16.20;52.20;;;;;;5086812;28;45334;-71
2023/03/31 02:49:28;;;;;;;2.58;2.03;;;16.20;52.90;;;;;;5086307;28;46714;-71
2023/03/31 02:52:11;;;;;;;3.20;2.20;;;16.20;52.30;;;;;;5086770;28;45265;-71
2023/03/31 02:55:16;;;;;;;2.50;1.90;;;16.10;52.20;;;;;;5086627;28;45237;-71
2023/03/31 02:58:11;;;;;;;2.10;1.63;;;16.20;52.20;;;;;;5003838;28;45678;-71
2023/03/31 03:00:45;;;;;;;3.03;1.95;;;16.10;52.20;;;;;;5085529;28;45507;-71
2023/03/31 03:03:23;;;;;;;2.72;1.92;;;16.10;52.20;;;;;;5086342;28;45367;-72
2023/03/31 03:05:53;;;;;;;2.05;1.83;;;16.10;52.30;;;;;;5086306;28;45292;-72
2023/03/31 03:08:25;;;;;;;2.40;2.08;;;16.10;52.20;;;;;;5086282;28;45585;-72
2023/03/31 03:10:58;;;;;;;4.15;1.90;;;16.10;52.30;;;;;;5086117;28;45252;-72
2023/03/31 03:13:28;;;;;;;2.25;1.65;;;16.10;52.30;;;;;;5086135;28;45280;-72
2023/03/31 03:15:56;;;;;;;2.33;1.80;;;16.10;52.30;;;;;;5086160;28;45269;-72
2023/03/31 03:18:24;;;;;;;2.58;1.90;;;16.10;52.40;;;;;;5086329;28;45336;-72
2023/03/31 03:20:51;;;;;;;2.97;2.03;;;16.10;52.30;;;;;;5085887;28;45354;-72
2023/03/31 03:23:18;;;;;;;2.63;2.10;;;16.10;52.30;;;;;;5085914;28;45310;-72
2023/03/31 03:25:45;;;;;;;3.05;1.60;;;16.10;52.30;;;;;;5085796;28;45366;-71
2023/03/31 03:28:12;;;;;;;3.53;2.00;;;16.10;52.40;;;;;;5086147;28;45473;-72
2023/03/31 03:30:39;;;;;;;2.65;1.88;;;16.10;52.30;;;;;;5085931;28;47867;-72
2023/03/31 03:33:06;;;;;;;2.22;2.03;;;16.10;52.30;;;;;;5085979;28;45257;-71
2023/03/31 03:35:34;;;;;;;2.95;1.85;;;16.10;52.30;;;;;;5085966;28;45314;-72
2023/03/31 03:38:01;;;;;;;2.20;1.80;;;16.10;52.30;;;;;;5085934;28;45362;-72
2023/03/31 03:40:28;;;;;;;4.18;2.00;;;16.10;52.40;;;;;;5085619;28;46735;-72
2023/03/31 03:42:55;;;;;;;3.42;2.00;;;16.10;52.40;;;;;;5085833;28;45284;-71
2023/03/31 03:45:21;;;;;;;2.42;1.88;;;16.10;52.40;;;;;;5085729;28;45264;-71
2023/03/31 03:47:48;;;;;;;2.70;2.20;;;16.00;52.30;;;;;;5085856;28;45404;-72
2023/03/31 03:50:15;;;;;;;1.98;1.75;;;16.10;52.40;;;;;;5085768;28;45530;-72
2023/03/31 03:52:43;;;;;;;2.72;2.17;;;16.10;52.30;;;;;;5085571;28;45306;-72
2023/03/31 03:55:11;;;;;;;2.42;1.88;;;16.10;52.30;;;;;;5085747;28;45311;-71
2023/03/31 03:57:37;;;;;;;3.85;2.45;;;16.10;52.30;;;;;;5085799;28;45303;-72
2023/03/31 04:00:08;;;;;;;2.47;1.88;;;16.10;52.30;;;;;;5085473;28;45268;-72
2023/03/31 04:02:35;;;;;;;3.33;2.00;;;16.00;52.30;;;;;;5085528;28;45134;-72
2023/03/31 04:05:02;;;;;;;3.88;1.90;;;16.00;52.20;;;;;;5085426;28;45357;-72
2023/03/31 04:07:29;;;;;;;1.75;1.65;;;16.00;52.30;;;;;;5085606;28;45495;-72
2023/03/31 04:09:57;;;;;;;2.47;1.65;;;16.00;52.20;;;;;;5085388;28;45471;-72
2023/03/31 04:12:24;;;;;;;1.90;1.70;;;16.00;52.80;;;;;;5088889;28;45328;-71
2023/03/31 04:14:51;;;;;;;3.03;2.00;;;16.00;52.30;;;;;;5089144;28;45281;-71
2023/03/31 04:17:19;;;;;;;3.20;2.08;;;16.00;52.90;;;;;;5089111;28;45396;-71
2023/03/31 04:19:49;;;;;;;2.00;1.80;;;16.00;52.30;;;;;;5088838;28;45565;-72
2023/03/31 04:22:19;;;;;;;2.22;1.90;;;16.00;52.20;;;;;;5068453;28;45277;-71
2023/03/31 04:24:51;;;;;;;2.58;1.98;;;16.00;52.30;;;;;;5068417;28;45317;-71
2023/03/31 04:27:19;;;;;;;3.45;2.08;;;16.00;52.30;;;;;;5068603;28;45312;-72
2023/03/31 04:29:53;;;;;;;1.98;1.75;;;16.00;52.30;;;;;;5077783;28;45483;-72
2023/03/31 04:32:20;;;;;;;2.00;1.80;;;16.00;52.30;;;;;;5088666;28;45372;-72
2023/03/31 04:34:49;;;;;;;2.90;1.70;;;16.00;52.30;;;;;;5088763;28;45435;-72
2023/03/31 04:37:16;;;;;;;1.67;1.58;;;16.00;52.30;;;;;;5088765;28;45531;-71
2023/03/31 04:39:45;;;;;;;2.92;2.20;;;16.00;52.30;;;;;;5088429;28;47666;-72
2023/03/31 04:42:12;;;;;;;3.15;1.70;;;16.00;52.30;;;;;;5088564;28;45421;-71
2023/03/31 04:44:40;;;;;;;2.13;1.77;;;16.00;52.20;;;;;;5088647;28;45327;-71
2023/03/31 04:47:07;;;;;;;1.70;1.60;;;16.00;52.20;;;;;;5088567;28;45299;-71
2023/03/31 04:49:35;;;;;;;2.88;1.50;;;16.00;52.30;;;;;;5088279;28;46720;-71
2023/03/31 04:52:02;;;;;;;2.40;1.90;;;16.00;52.30;;;;;;5088353;28;45296;-71
2023/03/31 04:54:29;;;;;;;1.50;1.30;;;16.00;52.30;;;;;;5088493;28;45447;-71
2023/03/31 04:56:56;;;;;;;2.65;1.90;;;16.00;52.30;;;;;;5088507;28;45312;-71
2023/03/31 04:59:22;;;;;;;2.80;1.67;;;16.00;52.30;;;;;;5088281;28;46354;-72
2023/03/31 05:01:51;;;;;;;2.05;1.60;;;16.00;52.40;;;;;;5088132;28;45525;-71
2023/03/31 05:04:17;;;;;;;2.78;1.83;;;16.00;52.30;;;;;;5088227;28;45339;-71
2023/03/31 05:06:44;;;;;;;2.38;1.70;;;16.00;52.30;;;;;;5088162;28;45430;-71
2023/03/31 05:09:11;;;;;;;2.00;1.70;;;16.00;52.30;;;;;;5087965;28;45249;-71
2023/03/31 05:11:38;;;;;;;2.10;1.83;;;16.00;52.30;;;;;;5088008;28;45189;-71
2023/03/31 05:14:05;;;;;;;1.58;1.48;;;16.00;52.40;;;;;;5088171;28;45249;-71
2023/03/31 05:16:31;;;;;;;2.20;1.77;;;16.00;52.40;;;;;;5088137;28;45403;-71
2023/03/31 05:19:00;;;;;;;1.98;1.50;;;16.00;52.40;;;;;;5087764;28;45419;-71
2023/03/31 05:21:29;;;;;;;2.17;1.90;;;15.90;52.40;;;;;;5087514;28;45160;-71
2023/03/31 05:23:56;;;;;;;1.92;1.60;;;15.90;52.30;;;;;;5087360;28;45276;-71
2023/03/31 05:26:23;;;;;;;1.98;1.58;;;16.00;52.40;;;;;;5087643;28;45225;-71
2023/03/31 05:28:50;;;;;;;3.30;1.63;;;15.90;52.30;;;;;;5087629;28;45518;-72
2023/03/31 05:31:17;;;;;;;2.25;1.60;;;15.90;52.40;;;;;;5085163;28;45181;-72
2023/03/31 05:33:44;;;;;;;1.80;1.70;;;15.90;52.30;;;;;;5087781;28;45324;-72
2023/03/31 05:36:13;;;;;;;3.22;1.98;;;15.90;52.30;;;;;;5087899;28;45442;-72
2023/03/31 05:38:40;;;;;;;2.30;1.60;;;15.90;52.30;;;;;;5087496;28;46904;-72
2023/03/31 05:41:08;;;;;;;1.85;1.65;;;15.90;52.30;;;;;;5087550;28;45420;-72
2023/03/31 05:43:35;;;;;;;1.63;1.38;;;15.90;52.40;;;;;;5087626;28;45261;-72
2023/03/31 05:46:01;;;;;;;2.28;1.77;;;15.90;52.40;;;;;;5087584;28;45623;-72
2023/03/31 05:48:28;;;;;;;2.72;1.70;;;15.90;52.40;;;;;;5087416;28;45401;-72
2023/03/31 05:50:57;;;;;;;2.25;1.88;;;15.90;52.40;;;;;;5087482;28;45377;-72
2023/03/31 05:53:25;;;;;;;2.15;1.65;;;15.90;52.40;;;;;;5087599;28;45321;-72
2023/03/31 05:55:57;;;;;;;3.28;1.85;;;15.90;52.40;;;;;;5087529;28;45419;-72
2023/03/31 05:58:24;;;;;;;2.25;1.70;;;15.90;52.40;;;;;;5087139;28;47628;-72
2023/03/31 06:00:52;;;;;;;2.38;1.58;;;15.90;52.40;;;;;;5087225;28;45381;-72
2023/03/31 06:03:19;;;;;;;2.90;1.63;;;15.90;52.40;;;;;;5087393;28;45336;-72
2023/03/31 06:05:48;;;;;;;2.67;1.45;;;15.90;52.40;;;;;;5087336;28;45272;-72
2023/03/31 06:08:15;;;;;;;1.77;1.65;;;15.90;52.50;;;;;;5086878;28;45434;-71
2023/03/31 06:10:43;;;;;;;2.58;1.52;;;15.90;52.50;;;;;;5087127;28;45274;-71
2023/03/31 06:13:10;;;;;;;3.58;1.90;;;15.90;52.60;;;;;;5087197;28;45416;-71
2023/03/31 06:15:36;;;;;;;2.53;1.90;;;15.90;52.70;;;;;;5087320;28;45181;-72
2023/03/31 06:18:06;;;;;;;1.55;1.45;;;15.80;52.80;;;;;;5087135;28;46522;-72
2023/03/31 06:20:33;;;;;;;2.58;1.88;;;15.80;52.70;;;;;;5087968;28;45363;-71
2023/03/31 06:22:59;;;;;;;2.97;1.92;;;15.80;52.90;;;;;;5088017;28;45405;-71
2023/03/31 06:25:26;;;;;;;1.70;1.60;;;15.80;52.80;;;;;;5087755;28;45466;-72
2023/03/31 06:27:54;;;;;;;2.85;1.73;;;15.80;52.80;;;;;;5087586;28;45240;-71
2023/03/31 06:30:21;;;;;;;1.90;1.70;;;15.80;52.80;;;;;;5087670;28;45561;-72
2023/03/31 06:32:48;;;;;;;1.40;1.30;;;15.80;52.80;;;;;;5087697;28;45333;-72
2023/03/31 06:35:15;;;;;;;2.67;1.52;;;15.80;52.70;;;;;;5086343;28;45427;-72
2023/03/31 06:37:42;;;;;;;4.00;2.05;;;15.80;52.80;;;;;;5103001;27;46377;-71
2023/03/31 06:40:10;;;;;;;1.58;1.48;;;15.80;52.80;;;;;;5086598;28;45143;-72
2023/03/31 06:42:36;;;;;;;1.50;1.40;;;15.80;53.50;;;;;;5087297;27;45396;-72
2023/03/31 06:45:05;;;;;;;5.20;1.38;;;15.80;53.60;;;;;;5089203;27;45309;-72
2023/03/31 06:47:32;;;;;;;3.45;1.63;;;15.80;53.40;;;;;;5107679;27;46424;-72
2023/03/31 06:49:59;;;;;;;2.35;1.80;;;15.80;53.30;;;;;;5088397;27;45277;-73
2023/03/31 06:52:26;;;;;;;2.15;1.95;;;15.80;53.40;;;;;;5087948;28;45326;-72
2023/03/31 06:54:52;;;;;;;2.60;1.42;;;15.80;54.20;;;;;;5089938;27;45423;-72
2023/03/31 06:57:20;;;;;;;2.45;1.73;;;15.80;53.60;;;;;;5100580;27;46428;-72
2023/03/31 06:59:46;;;;;;;2.95;1.65;;;15.80;53.70;;;;;;5108044;27;45253;-72
2023/03/31 07:02:15;;;;;;;1.77;1.63;;;15.80;53.90;;;;;;5097487;27;45126;-72
2023/03/31 07:04:41;;;;;;;4.60;1.50;;;15.80;54.00;;;;;;5088683;27;45512;-72
2023/03/31 07:07:08;;;;;;;1.63;1.52;;;15.80;54.70;;;;;;5107605;27;45515;-72
2023/03/31 07:09:35;;;;;;;1.52;1.42;;;15.90;54.10;;;;;;5091053;27;45301;-72
2023/03/31 07:12:04;;;;;;;2.00;1.50;;;15.90;54.00;;;;;;5088355;27;45387;-72
2023/03/31 07:14:30;;;;;;;3.75;1.52;;;15.90;53.90;;;;;;5087732;28;45221;-72
2023/03/31 07:16:57;;;;;;;2.22;1.35;;;15.90;53.90;;;;;;5092099;27;46383;-72
2023/03/31 07:19:25;;;;;;;2.00;1.60;;;16.00;53.80;;;;;;5095390;27;45314;-72
2023/03/31 07:21:53;;;;;;;1.83;1.70;;;16.00;53.70;;;;;;5070796;28;45304;-72
2023/03/31 07:24:20;;;;;;;2.17;1.50;;;16.00;53.70;;;;;;5079404;27;45611;-72
2023/03/31 07:26:46;;;;;;;2.30;1.80;;;16.00;53.70;;;;;;5088074;27;46398;-72
2023/03/31 07:29:13;;;;;;;2.85;1.55;;;16.00;53.70;;;;;;5088031;27;45603;-73
2023/03/31 07:31:40;;;;;;;3.08;1.73;;;16.00;53.60;;;;;;5093415;27;45313;-73
2023/03/31 07:34:07;;;;;;;3.20;1.70;;;16.00;53.60;;;;;;5111851;27;45226;-73
2023/03/31 07:36:35;;;;;;;4.03;1.60;;;16.00;53.50;;;;;;5096648;27;46631;-73
2023/03/31 07:39:02;;;;;;;1.83;1.50;;;16.00;53.50;;;;;;5087221;27;45344;-73
2023/03/31 07:41:30;;;;;;;1.60;1.42;;;16.00;53.40;;;;;;5099140;27;45470;-74
2023/03/31 07:43:56;;;;;;;2.17;1.95;;;16.00;53.40;;;;;;5113767;27;45336;-73
2023/03/31 07:46:24;;;;;;;2.22;1.77;;;16.00;54.00;;;;;;5098021;27;45611;-73
2023/03/31 07:48:51;;;;;;;1.77;1.42;;;16.00;53.40;;;;;;5097064;27;45480;-73
2023/03/31 07:51:20;;;;;;;3.55;1.52;;;16.00;53.40;;;;;;5105662;27;45430;-72
2023/03/31 07:53:51;;;;;;;1.50;1.40;;;16.00;53.90;;;;;;5102680;27;45354;-72
2023/03/31 07:56:17;;;;;;;2.85;1.70;;;16.10;53.40;;;;;;5087396;28;45416;-73
2023/03/31 07:58:45;;;;;;;1.80;1.35;;;16.10;53.50;;;;;;5087956;27;45547;-73
2023/03/31 08:01:15;;;;;;;1.50;1.33;;;16.10;53.50;;;;;;5094686;27;45375;-73
2023/03/31 08:03:42;;;;;;;2.65;1.45;;;16.10;53.40;;;;;;5098040;27;45343;-73
2023/03/31 08:06:09;;;;;;;2.08;1.50;;;16.10;53.40;;;;;;5110097;27;46402;-73
2023/03/31 08:08:37;;;;;;;1.90;1.55;;;16.10;53.40;;;;;;5104197;27;45396;-72
2023/03/31 08:11:05;;;;;;;1.85;1.50;;;16.10;53.30;;;;;;5095328;27;45201;-73
2023/03/31 08:13:32;;;;;;;2.00;1.10;;;16.10;53.40;;;;;;5089697;27;45523;-73
2023/03/31 08:15:59;;;;;;;2.28;1.45;;;16.10;53.40;;;;;;5106659;27;45362;-72
2023/03/31 08:18:26;;;;;;;2.10;1.45;;;16.10;53.40;;;;;;5086201;28;45389;-73
2023/03/31 08:20:53;;;;;;;2.53;1.35;;;16.10;53.30;;;;;;5078203;28;45357;-73
2023/03/31 08:23:19;;;;;;;4.88;1.50;;;16.10;53.30;;;;;;5104670;27;45306;-73
2023/03/31 08:25:47;;;;;;;2.42;1.20;;;16.20;53.30;;;;;;5108509;27;45255;-73
2023/03/31 08:28:16;;;;;;;2.70;1.45;;;16.20;53.20;;;;;;5105243;27;45390;-73
2023/03/31 08:30:42;;;;;;;1.50;1.35;;;16.20;53.20;;;;;;5089542;27;45396;-73
2023/03/31 08:33:11;;;;;;;1.65;1.30;;;16.20;53.20;;;;;;5101608;27;45194;-73
2023/03/31 08:35:38;;;;;;;1.88;1.23;;;16.20;53.10;;;;;;5105752;27;46732;-73
2023/03/31 08:38:05;;;;;;;1.65;1.50;;;16.20;53.20;;;;;;5104931;27;45684;-73
2023/03/31 08:40:32;;;;;;;2.22;1.48;;;16.20;53.30;;;;;;5106888;27;45276;-73
2023/03/31 08:43:00;;;;;;;1.65;1.33;;;16.20;53.20;;;;;;5096729;27;45390;-73
2023/03/31 08:45:30;;;;;;;1.60;1.50;;;16.20;53.20;;;;;;5090051;27;47020;-74
2023/03/31 08:47:59;;;;;;;1.60;1.20;;;16.20;53.20;;;;;;5094053;27;45277;-73
2023/03/31 08:50:27;;;;;;;1.83;1.50;;;16.30;53.30;;;;;;5104970;27;45587;-73
2023/03/31 08:52:57;;;;;;;1.40;1.30;;;16.30;53.30;;;;;;5105282;27;45301;-73
2023/03/31 08:55:27;;;;;;;2.30;1.52;;;16.30;53.20;;;;;;5105956;27;45226;-73
2023/03/31 08:57:57;;;;;;;1.58;1.35;;;16.30;53.10;;;;;;5106364;27;45321;-73
2023/03/31 09:00:23;;;;;;;2.03;1.38;;;16.30;53.30;;;;;;5118631;27;45325;-73
2023/03/31 09:02:55;;;;;;;2.30;1.65;;;16.30;53.00;;;;;;5108484;27;45412;-73
2023/03/31 09:05:36;;;;;;;2.80;1.50;;;16.40;53.10;;;;;;5109691;27;46401;-73
2023/03/31 09:08:15;;;;;;;1.52;1.35;;;16.40;53.30;;;;;;5107971;27;45410;-73
2023/03/31 09:10:44;;;;;;;2.08;1.40;;;16.40;53.20;;;;;;5109888;27;45304;-73
2023/03/31 09:13:29;;;;;;;1.10;1.00;;;16.50;53.20;;;;;;5108607;27;45458;-73
2023/03/31 09:15:59;;;;;;;2.65;1.50;;;16.50;53.10;;;;;;5091405;27;45365;-72
2023/03/31 09:18:29;;;;;;;2.67;1.70;;;16.50;53.20;;;;;;5092908;27;45400;-74
2023/03/31 09:20:58;;;;;;;2.55;1.58;;;16.50;53.30;;;;;;5099550;27;45350;-73
2023/03/31 09:23:27;;;;;;;1.67;1.50;;;16.50;53.40;;;;;;5097734;27;45373;-73
2023/03/31 09:25:54;;;;;;;2.28;1.42;;;16.50;53.50;;;;;;5108923;27;45453;-74
2023/03/31 09:28:22;;;;;;;2.17;1.50;;;16.60;53.40;;;;;;5107958;27;45272;-73
2023/03/31 09:30:49;;;;;;;1.85;1.58;;;16.60;53.40;;;;;;5109365;27;45371;-74
2023/03/31 09:33:18;;;;;;;2.17;1.52;;;16.60;53.50;;;;;;5106291;27;45353;-74
2023/03/31 09:35:46;;;;;;;4.57;1.55;;;16.60;53.50;;;;;;5107516;27;46660;-73
2023/03/31 09:38:14;;;;;;;2.83;1.40;;;16.60;53.50;;;;;;5109021;27;45382;-73
2023/03/31 09:40:41;;;;;;;1.73;1.52;;;16.60;53.50;;;;;;5099044;27;45511;-74
2023/03/31 09:43:10;;;;;;;3.58;1.60;;;16.60;53.50;;;;;;5079892;28;45277;-74
2023/03/31 09:45:37;;;;;;;3.28;1.30;;;16.60;53.50;;;;;;5087671;28;46819;-73
2023/03/31 09:48:05;;;;;;;2.13;1.45;;;16.60;53.40;;;;;;5088614;27;44788;-73
2023/03/31 09:50:33;;;;;;;1.77;1.40;;;16.60;53.50;;;;;;5089549;27;45278;-73
2023/03/31 09:53:01;;;;;;;1.33;1.23;;;16.60;53.50;;;;;;5093172;27;45189;-72
2023/03/31 09:55:31;;;;;;;2.58;1.67;;;16.70;53.60;;;;;;5092187;27;45480;-73
2023/03/31 09:58:00;;;;;;;2.45;1.77;;;16.70;53.50;;;;;;5106055;27;45303;-72
2023/03/31 10:00:27;;;;;;;3.47;1.60;;;16.70;53.50;;;;;;5104699;27;45431;-72
2023/03/31 10:02:54;;;;;;;3.95;1.70;;;16.70;53.30;;;;;;5085441;27;45355;-72
2023/03/31 10:05:28;;;;;;;2.85;1.52;;;16.80;53.30;;;;;;5067700;28;45490;-72
2023/03/31 10:08:09;;;;;;;3.17;1.58;;;16.80;53.30;;;;;;5067209;28;45485;-72
2023/03/31 10:10:38;;;;;;;4.68;1.50;;;16.80;53.20;;;;;;5067787;28;45286;-72
2023/03/31 10:13:08;;;;;;;2.75;1.40;;;16.90;53.20;;;;;;5068014;28;45405;-72
2023/03/31 10:15:37;;;;;;;1.92;1.27;;;16.90;53.30;;;;;;5067707;28;45305;-72
2023/03/31 10:18:04;;;;;;;1.88;1.17;;;16.80;53.20;;;;;;5067545;28;45309;-72
2023/03/31 10:20:32;;;;;;;5.80;1.60;;;16.80;52.70;;;;;;5068035;28;45381;-72
2023/03/31 10:23:03;;;;;;;2.58;1.63;;;16.90;53.20;;;;;;5067742;28;45570;-72
2023/03/31 10:25:30;;;;;;;9.63;1.65;;;16.90;53.10;;;;;;5067361;28;45573;-72
2023/03/31 10:27:58;;;;;;;3.60;1.45;;;17.00;52.90;;;;;;5067204;28;45389;-72
2023/03/31 10:30:28;;;;;;;3.05;1.60;;;17.00;52.70;;;;;;5067379;28;45153;-72
2023/03/31 10:32:55;;;;;;;2.15;1.33;;;17.10;52.50;;;;;;5067766;28;45409;-73
2023/03/31 10:35:25;;;;;;;3.13;1.58;;;17.00;52.60;;;;;;5067378;28;45487;-72
2023/03/31 10:37:55;;;;;;;2.63;1.50;;;17.00;52.60;;;;;;5067356;28;45214;-72
2023/03/31 10:40:23;;;;;;;2.83;1.52;;;17.10;52.80;;;;;;5067376;28;45388;-72
2023/03/31 10:42:58;;;;;;;8.18;1.80;;;17.10;52.60;;;;;;5067428;28;45263;-72
2023/03/31 10:45:27;;;;;;;1.27;1.13;;;17.10;52.50;;;;;;5075334;27;45857;-71
2023/03/31 10:47:55;;;;;;;2.42;1.50;;;17.10;52.70;;;;;;5103168;27;45519;-72
2023/03/31 10:50:26;;;;;;;2.80;1.27;;;17.10;52.50;;;;;;5100795;27;45524;-72
2023/03/31 10:52:53;;;;;;;2.72;1.67;;;17.10;52.60;;;;;;5090697;27;45391;-72
2023/03/31 10:55:23;;;;;;;3.95;1.63;;;17.10;52.60;;;;;;5107358;27;46783;-72
2023/03/31 10:57:53;;;;;;;1.48;1.35;;;17.10;52.50;;;;;;5105793;27;45475;-72
2023/03/31 11:00:24;;;;;;;4.93;1.85;;;17.20;52.70;;;;;;5097067;27;45521;-71
2023/03/31 11:03:04;;;;;;;3.22;1.60;;;17.10;52.60;;;;;;5088083;27;45448;-73
2023/03/31 11:05:32;;;;;;;3.13;1.50;;;17.10;52.50;;;;;;5087230;28;46938;-72
2023/03/31 11:08:10;;;;;;;3.72;1.58;;;17.10;52.50;;;;;;5086949;27;45440;-73
2023/03/31 11:10:43;;;;;;;3.38;1.50;;;17.20;52.50;;;;;;5087082;28;45389;-71
2023/03/31 11:13:12;;;;;;;5.03;1.73;;;17.20;52.70;;;;;;5099131;27;45291;-72
2023/03/31 11:15:41;;;;;;;3.70;1.30;;;17.10;52.60;;;;;;5104900;27;46871;-72
2023/03/31 11:18:18;;;;;;;3.67;1.85;;;17.10;53.10;;;;;;5107524;27;45407;-72
2023/03/31 11:20:51;;;;;;;4.78;1.60;;;17.10;52.50;;;;;;5106638;27;45248;-72
2023/03/31 11:23:21;;;;;;;2.15;1.35;;;17.10;52.60;;;;;;5107633;27;45310;-72
2023/03/31 11:25:50;;;;;;;6.97;1.80;;;17.10;52.90;;;;;;5106896;27;46391;-72
2023/03/31 11:28:32;;;;;;;3.50;1.48;;;17.20;52.70;;;;;;5107010;27;45321;-73
2023/03/31 11:31:03;;;;;;;4.22;1.35;;;17.20;52.60;;;;;;5107257;27;45336;-72
2023/03/31 11:33:47;;;;;;;2.05;1.40;;;17.20;52.40;;;;;;5107693;27;45366;-72
2023/03/31 11:36:21;;;;;;;5.65;1.27;;;17.20;52.30;;;;;;5107257;27;47297;-72
2023/03/31 11:38:54;;;;;;;6.05;1.20;;;17.20;52.50;;;;;;5107314;27;45390;-73
2023/03/31 11:41:22;;;;;;;1.83;1.10;;;17.20;52.30;;;;;;5107340;27;45281;-74
2023/03/31 11:43:50;;;;;;;3.22;1.30;;;17.20;52.00;;;;;;5107113;27;45115;-73
2023/03/31 11:46:19;;;;;;;7.30;1.42;;;17.20;51.70;;;;;;5104324;27;45292;-72
2023/03/31 11:48:49;;;;;;;1.83;1.20;;;17.20;51.90;;;;;;5107296;27;45295;-72
2023/03/31 11:51:18;;;;;;;3.38;1.10;;;17.20;51.60;;;;;;5107208;27;45285;-73
2023/03/31 11:53:45;;;;;;;1.50;0.88;;;17.20;51.40;;;;;;5107241;27;45335;-73
2023/03/31 11:56:12;;;;;;;2.47;1.20;;;17.10;51.40;;;;;;5106817;27;46701;-72
2023/03/31 11:58:41;;;;;;;4.00;1.30;;;17.10;51.20;;;;;;5106682;27;45338;-72
2023/03/31 12:01:12;;;;;;;3.13;1.00;;;17.10;51.10;;;;;;5106749;27;45154;-72
2023/03/31 12:03:42;;;;;;;2.85;1.20;;;17.10;50.80;;;;;;5106986;27;45300;-72
2023/03/31 12:06:15;;;;;;;6.30;0.80;;;17.00;50.80;;;;;;5106382;27;45757;-72
2023/03/31 12:08:46;;;;;;;1.25;0.50;;;17.00;50.20;;;;;;5106320;27;45193;-72
2023/03/31 12:11:15;;;;;;;0.93;0.68;;;17.00;48.80;;;;;;5106759;27;45376;-72
2023/03/31 12:13:45;;;;;;;1.60;0.40;;;17.00;47.70;;;;;;5107023;27;45123;-72
2023/03/31 12:16:13;;;;;;;1.17;0.70;;;17.00;47.30;;;;;;5106469;27;45472;-72
2023/03/31 12:18:41;;;;;;;4.88;0.80;;;17.00;47.80;;;;;;5105774;27;45331;-72
2023/03/31 12:21:08;;;;;;;1.23;0.70;;;17.00;47.50;;;;;;5105795;27;45355;-72
2023/03/31 12:23:40;;;;;;;1.05;0.75;;;17.00;47.50;;;;;;5105914;27;45404;-72
2023/03/31 12:26:08;;;;;;;2.33;0.60;;;17.00;47.30;;;;;;5105131;27;47300;-72
2023/03/31 12:28:36;;;;;;;3.17;0.60;;;17.10;48.00;;;;;;5105478;27;45343;-72
2023/03/31 12:31:03;;;;;;;0.60;0.50;;;17.20;47.80;;;;;;5106135;27;45427;-72
2023/03/31 12:33:31;;;;;;;1.70;0.60;;;17.30;47.40;;;;;;5109361;27;45281;-72
2023/03/31 12:36:14;;;;;;;1.77;0.80;;;17.50;47.50;;;;;;5108837;27;46879;-72
2023/03/31 12:38:48;;;;;;;0.57;0.55;;;17.50;47.30;;;;;;5109025;27;45288;-72
2023/03/31 12:41:17;;;;;;;1.70;0.65;;;17.50;47.50;;;;;;5109184;27;45138;-72
2023/03/31 12:44:02;;;;;;;2.53;0.70;;;17.40;47.50;;;;;;5109243;27;45510;-72
2023/03/31 12:46:48;;;;;;;1.65;0.60;;;17.50;47.70;;;;;;5108904;27;45589;-72
2023/03/31 12:49:26;;;;;;;1.45;0.80;;;17.60;48.20;;;;;;5108692;27;45290;-72
2023/03/31 12:52:00;;;;;;;2.40;0.80;;;17.70;48.20;;;;;;5109000;27;45419;-72
2023/03/31 12:54:54;;;;;;;1.42;0.82;;;17.70;48.20;;;;;;5109191;27;45367;-72
2023/03/31 12:57:22;;;;;;;1.25;0.75;;;17.80;48.60;;;;;;5108810;27;45514;-72
2023/03/31 13:00:17;;;;;;;2.58;0.75;;;17.70;48.70;;;;;;5108813;27;45435;-72